Hlavní strana
METAR-TAF:

METAR-TAF

Letiště :

Zadar, Chorvatsko

zeměpisná šířka: 44-06N, zeměpisná délka: 015-21E, výška: 82 m

Aktuální stav počasí

Zpráva byla vytvořena před 24 minutami, v 15:30 UTC
Východní vítr 6 kt, proměnlivý mezi severovýchodním a jihovýchodním
Teplota 11°C
Vlhkost vzduchu 47%
Tlak 1024 hPa
Viditelnost 10 km a více
Skoro jasno ve výšce 4000 ft

METAR: LDZD 161530Z 09006KT 050V130 9999 FEW040 11/00 Q1024 BECMG 07008KT

Čas: 16:54 (15:54 UTC)

Předpověď počasí

Zpráva byla vytvořena před 4 hodinami a 29 minutami, v 11:25 UTC
Předpověď platná od 16 v 12 UTC do 17 v 12 UTC
Východoseverovýchodní vítr 14 kt
Viditelnost 10 km a více
Skoro jasno ve výšce 5500 ft
Dočasný
od 16 v 12 UTC do 17 v 12 UTC
Východoseverovýchodní vítr 15 kt s nárazy do 25 kt
Pravděpodobnost 40% :
Dočasný
od 16 v 12 UTC do 17 v 12 UTC
Východoseverovýchodní vítr 9 kt

TAF: LDZD 161125Z 1612/1712 07014KT 9999 FEW055 TX14/1612Z TN06/1706Z TEMPO 1612/1712 07015G25KT PROB40 TEMPO 1612/1712 07009KT

Stav a předpovědi počasí z více než 4 000 letišť (zprávy METAR a TAF).

Červené a žluté tečky na mapě představují dostupné meteorologické stanice.

Když kurzor umístíte na tečku, zobrazí se název stanice.

Pak kliknutím zobrazíte stav a předpověď počasí.

Chcete-li změnit mapu, kliknutím na zelené tlačítko se znaménkem +mapu přiblížíte, kliknutím na zelené tlačítko se znaménkem – mapu oddálíte a kliknutím na zelené šipky přejdete na sousední mapy.


METAR-TAF: